Time;durP1;ratioP1;P1;durP2;ratioP2;P2;SDS_P1;SDS_P2;PMS_P1;PMS_P2;Temp;Humidity;BMP_temperature;BMP_pressure;BME280_temperature;BME280_humidity;BME280_pressure;Samples;Min_cycle;Max_cycle;Signal;HPM_P1;HPM_P2
2023/09/29 00:01:38;;;;;;;6.50;5.90;;;;;;;21.25;73.51;100304.38;10349333;28;20519;-66
2023/09/29 00:06:40;;;;;;;7.70;6.05;;;;;;;21.22;73.52;100296.66;10340408;28;20393;-64
2023/09/29 00:11:41;;;;;;;7.35;5.93;;;;;;;21.25;74.11;100315.22;10346553;28;20053;-65
2023/09/29 00:16:45;;;;;;;7.40;6.05;;;;;;;20.99;73.75;100284.97;10346578;28;20049;-65
2023/09/29 00:21:46;;;;;;;7.53;6.07;;;;;;;21.09;73.89;100303.59;10349396;28;20050;-65
2023/09/29 00:26:47;;;;;;;7.82;6.35;;;;;;;21.16;73.58;100319.91;10347653;28;20161;-65
2023/09/29 00:31:49;;;;;;;7.70;6.75;;;;;;;21.10;73.73;100324.22;10349870;28;20050;-64
2023/09/29 00:36:51;;;;;;;6.18;5.57;;;;;;;21.08;73.43;100320.88;10353453;28;20049;-66
2023/09/29 00:41:52;;;;;;;6.50;5.95;;;;;;;21.02;74.22;100308.94;10348303;28;20265;-64
2023/09/29 00:46:54;;;;;;;7.05;5.90;;;;;;;20.96;74.41;100298.88;10347304;28;20045;-66
2023/09/29 00:52:00;;;;;;;6.85;5.57;;;;;;;20.87;74.75;100286.50;10346662;28;20133;-64
2023/09/29 00:57:05;;;;;;;7.20;5.78;;;;;;;20.88;75.45;100282.72;10343971;28;20050;-66
2023/09/29 01:02:09;;;;;;;6.30;5.72;;;;;;;20.86;75.27;100286.69;10335544;28;20282;-64
2023/09/29 01:07:11;;;;;;;8.32;5.57;;;;;;;20.82;74.42;100295.19;10326751;28;20127;-67
2023/09/29 01:12:27;;;;;;;9.57;6.43;;;;;;;20.75;74.86;100274.50;10346220;28;20459;-66
2023/09/29 01:17:28;;;;;;;7.00;6.25;;;;;;;20.65;74.89;100261.22;10340613;28;20471;-66
2023/09/29 01:22:31;;;;;;;6.40;5.80;;;;;;;20.66;74.58;100285.41;10347268;28;20041;-65
2023/09/29 01:27:33;;;;;;;7.47;5.90;;;;;;;20.55;74.67;100276.91;10343817;28;20045;-64
2023/09/29 01:32:35;;;;;;;7.18;5.45;;;;;;;20.63;75.12;100285.75;10347828;28;20193;-64
2023/09/29 01:37:38;;;;;;;6.43;5.80;;;;;;;20.62;75.21;100294.06;10344978;28;20271;-64
2023/09/29 01:42:41;;;;;;;6.30;5.70;;;;;;;20.62;74.91;100288.66;10345948;28;20092;-64
2023/09/29 01:47:45;;;;;;;7.03;5.97;;;;;;;20.58;74.70;100281.94;10307130;28;20054;-65
2023/09/29 01:52:48;;;;;;;7.75;6.25;;;;;;;20.52;75.15;100283.50;10304715;28;20156;-66
2023/09/29 01:57:55;;;;;;;8.00;6.00;;;;;;;20.43;75.89;100274.69;10302414;28;20046;-65
2023/09/29 02:02:58;;;;;;;6.50;5.55;;;;;;;20.46;76.17;100282.41;10305039;28;20487;-65
2023/09/29 02:08:04;;;;;;;6.63;5.95;;;;;;;20.43;76.38;100277.41;10304577;28;20564;-66
2023/09/29 02:13:05;;;;;;;7.30;6.60;;;;;;;20.34;76.43;100275.78;10299409;28;20049;-64
2023/09/29 02:18:09;;;;;;;7.05;6.40;;;;;;;20.37;76.90;100280.00;10297843;28;20054;-65
2023/09/29 02:23:14;;;;;;;7.63;6.07;;;;;;;20.24;76.59;100270.69;10302131;28;20406;-64
2023/09/29 02:28:15;;;;;;;6.50;5.90;;;;;;;20.30;76.94;100280.75;10304437;28;20047;-65
2023/09/29 02:33:17;;;;;;;6.35;5.80;;;;;;;20.07;76.17;100243.00;10303464;28;20050;-66
2023/09/29 02:38:18;;;;;;;7.05;5.90;;;;;;;20.24;76.68;100277.97;10303947;28;20054;-63
2023/09/29 02:43:20;;;;;;;6.82;5.57;;;;;;;20.20;76.73;100290.97;10300342;28;20184;-63
2023/09/29 02:48:22;;;;;;;7.72;5.63;;;;;;;20.18;76.60;100297.63;10303246;28;20054;-66
2023/09/29 02:53:23;;;;;;;7.15;6.20;;;;;;;20.12;76.30;100283.81;10300244;28;20065;-64
2023/09/29 02:58:25;;;;;;;7.28;6.57;;;;;;;20.21;76.58;100298.06;10304941;28;20054;-64
2023/09/29 03:03:26;;;;;;;6.82;6.13;;;;;;;20.12;76.77;100296.50;10304758;28;20460;-65
2023/09/29 03:08:28;;;;;;;6.65;5.68;;;;;;;20.13;77.02;100288.19;10305538;28;20441;-64
2023/09/29 03:13:29;;;;;;;6.57;5.97;;;;;;;20.04;76.47;100280.34;10311555;28;22209;-63
2023/09/29 03:18:32;;;;;;;8.07;6.70;;;;;;;20.00;77.12;100296.09;10307289;28;20637;-64
2023/09/29 03:23:34;;;;;;;6.93;5.38;;;;;;;19.93;77.27;100285.19;10308592;28;20152;-65
2023/09/29 03:28:36;;;;;;;6.43;5.82;;;;;;;19.76;77.20;100273.66;10315690;28;20456;-65
2023/09/29 03:33:38;;;;;;;6.57;5.97;;;;;;;19.82;77.63;100277.53;10323852;28;20148;-62
2023/09/29 03:38:41;;;;;;;6.60;6.00;;;;;;;19.81;77.84;100286.66;10312098;28;20543;-63
2023/09/29 03:43:42;;;;;;;8.20;6.15;;;;;;;19.80;77.49;100284.97;10309322;28;20050;-64
2023/09/29 03:48:47;;;;;;;8.32;6.05;;;;;;;19.72;77.66;100288.56;10306912;28;20058;-66
2023/09/29 03:53:49;;;;;;;7.05;6.18;;;;;;;19.70;77.58;100285.22;10304661;28;20132;-63
2023/09/29 03:58:53;;;;;;;6.65;6.05;;;;;;;19.79;77.82;100288.72;10311385;28;20060;-65
2023/09/29 04:03:55;;;;;;;7.13;6.38;;;;;;;19.81;77.77;100291.22;10308861;28;20132;-65
2023/09/29 04:08:57;;;;;;;7.82;5.88;;;;;;;19.80;77.34;100289.53;10310038;28;20642;-65
2023/09/29 04:13:59;;;;;;;6.38;5.75;;;;;;;19.71;77.34;100286.03;10308107;28;20116;-67
2023/09/29 04:19:00;;;;;;;9.00;5.72;;;;;;;19.71;77.89;100286.91;10309255;28;20145;-65
2023/09/29 04:24:02;;;;;;;5.35;4.63;;;;;;;19.68;77.70;100287.25;10311106;28;20066;-64
2023/09/29 04:29:03;;;;;;;6.50;5.65;;;;;;;19.73;77.95;100301.03;10307050;28;20073;-67
2023/09/29 04:34:05;;;;;;;7.32;5.50;;;;;;;19.64;78.01;100282.41;10307237;28;20147;-68
2023/09/29 04:39:06;;;;;;;7.32;5.07;;;;;;;19.68;77.50;100298.06;10306830;28;20528;-63
2023/09/29 04:44:08;;;;;;;6.30;5.32;;;;;;;19.68;78.33;100295.38;10306630;28;20081;-65
2023/09/29 04:49:09;;;;;;;6.18;5.57;;;;;;;19.69;78.72;100299.72;10311470;28;20057;-65
2023/09/29 04:54:11;;;;;;;6.60;6.00;;;;;;;19.66;78.36;100299.25;10307859;28;20054;-64
2023/09/29 04:59:12;;;;;;;7.93;5.78;;;;;;;19.69;77.96;100299.72;10303630;28;20042;-66
2023/09/29 05:04:14;;;;;;;6.93;5.20;;;;;;;19.66;77.57;100293.84;10301061;28;20061;-65
2023/09/29 05:09:15;;;;;;;7.85;5.82;;;;;;;19.53;78.06;100276.41;10300128;28;20712;-66
2023/09/29 05:14:17;;;;;;;5.97;5.38;;;;;;;19.59;77.84;100294.59;10301372;28;20135;-67
2023/09/29 05:19:19;;;;;;;6.43;5.80;;;;;;;19.57;77.70;100291.22;10297153;28;20396;-65
2023/09/29 05:24:20;;;;;;;5.93;5.13;;;;;;;19.61;78.09;100297.09;10302043;28;20422;-67
2023/09/29 05:29:22;;;;;;;6.38;5.78;;;;;;;19.60;77.67;100301.66;10301948;28;20064;-65
2023/09/29 05:34:23;;;;;;;6.95;6.07;;;;;;;19.59;77.98;100309.94;10299955;28;20054;-66
2023/09/29 05:39:25;;;;;;;8.65;6.72;;;;;;;19.57;78.70;100318.22;10300019;28;20069;-64
2023/09/29 05:44:27;;;;;;;5.75;5.20;;;;;;;19.57;78.27;100312.81;10299411;28;20050;-66
2023/09/29 05:49:28;;;;;;;9.45;6.47;;;;;;;19.56;78.67;100310.28;10299383;28;20056;-65
2023/09/29 05:54:30;;;;;;;10.45;6.00;;;;;;;19.60;78.83;100317.00;10294153;28;20487;-66
2023/09/29 05:59:31;;;;;;;9.10;5.70;;;;;;;19.59;78.72;100328.81;10296675;28;20050;-65
2023/09/29 06:04:33;;;;;;;9.30;5.60;;;;;;;19.62;78.67;100317.66;10292961;28;20046;-65
2023/09/29 06:09:35;;;;;;;9.02;6.43;;;;;;;19.53;77.31;100316.06;10295133;28;20198;-66
2023/09/29 06:14:37;;;;;;;9.27;6.03;;;;;;;19.57;78.33;100320.06;10293081;28;20065;-65
2023/09/29 06:19:38;;;;;;;10.13;6.13;;;;;;;19.51;79.38;100307.31;10284067;28;20054;-65
2023/09/29 06:24:40;;;;;;;8.65;6.07;;;;;;;19.58;78.43;100303.69;10290482;28;20053;-63
2023/09/29 06:29:46;;;;;;;10.82;6.30;;;;;;;19.57;77.93;100302.00;10279918;28;20457;-65
2023/09/29 06:34:48;;;;;;;12.23;6.90;;;;;;;19.60;78.56;100317.00;10294334;28;20054;-63
2023/09/29 06:39:49;;;;;;;10.05;6.43;;;;;;;19.64;78.91;100323.75;10294958;28;20053;-65
2023/09/29 06:44:51;;;;;;;12.32;7.03;;;;;;;19.71;78.92;100335.50;10292903;28;20830;-63
2023/09/29 06:49:52;;;;;;;9.57;7.22;;;;;;;19.81;79.51;100345.25;10290541;28;20054;-64
2023/09/29 06:54:54;;;;;;;8.70;7.13;;;;;;;19.80;79.43;100332.75;10291994;28;20606;-63
2023/09/29 06:59:55;;;;;;;11.07;8.32;;;;;;;19.92;78.87;100342.09;10293501;28;20163;-64
2023/09/29 07:04:57;;;;;;;8.20;7.30;;;;;;;19.93;78.24;100323.00;10293661;28;20065;-64
2023/09/29 07:09:59;;;;;;;12.55;8.60;;;;;;;19.98;76.43;100327.84;10295631;28;20100;-64
2023/09/29 07:15:00;;;;;;;9.73;7.88;;;;;;;19.90;76.53;100298.22;10294402;28;20057;-65
2023/09/29 07:20:03;;;;;;;10.65;8.10;;;;;;;20.02;76.98;100294.03;10291608;28;20061;-65
2023/09/29 07:25:05;;;;;;;9.93;8.23;;;;;;;19.82;74.69;100257.81;10288190;28;20167;-65
2023/09/29 07:30:08;;;;;;;10.23;6.83;;;;;;;20.14;76.04;100289.03;10291807;28;20497;-65
2023/09/29 07:35:10;;;;;;;7.97;6.47;;;;;;;20.22;74.36;100294.34;10293515;28;20116;-65
2023/09/29 07:40:13;;;;;;;10.20;7.38;;;;;;;20.25;75.32;100283.19;10294032;28;20525;-65
2023/09/29 07:45:15;;;;;;;9.02;6.70;;;;;;;20.27;73.58;100285.69;10295248;28;20196;-65
2023/09/29 07:50:17;;;;;;;10.13;6.85;;;;;;;20.34;74.31;100281.19;10314468;28;20054;-65
2023/09/29 07:55:18;;;;;;;7.55;6.85;;;;;;;20.38;73.51;100282.50;10339231;28;20057;-65
2023/09/29 08:00:20;;;;;;;6.70;5.97;;;;;;;20.39;73.42;100291.47;10339599;28;20108;-65
2023/09/29 08:05:21;;;;;;;8.10;5.57;;;;;;;20.42;74.51;100297.34;10338569;28;20056;-65
2023/09/29 08:10:23;;;;;;;6.75;6.05;;;;;;;20.48;72.75;100304.69;10324100;28;20147;-65
2023/09/29 08:15:24;;;;;;;6.95;6.25;;;;;;;20.51;72.94;100303.50;10324367;28;20493;-64
2023/09/29 08:20:26;;;;;;;7.35;6.03;;;;;;;20.63;72.64;100317.38;10342923;28;20057;-64
2023/09/29 08:25:27;;;;;;;6.68;5.50;;;;;;;20.72;72.79;100310.03;10340113;28;20049;-65
2023/09/29 08:30:29;;;;;;;8.40;5.50;;;;;;;20.74;70.83;100313.38;10340854;28;20077;-63
2023/09/29 08:35:31;;;;;;;6.65;5.18;;;;;;;21.07;71.55;100330.00;10348260;28;20560;-63
2023/09/29 08:40:37;;;;;;;6.65;4.75;;;;;;;21.43;70.10;100325.59;10348173;28;20087;-63
2023/09/29 08:45:42;;;;;;;7.47;4.93;;;;;;;21.49;68.73;100312.13;10319837;28;20037;-63
2023/09/29 08:50:49;;;;;;;7.78;5.13;;;;;;;21.53;67.74;100286.34;10300876;28;20057;-65
2023/09/29 08:55:54;;;;;;;6.68;6.03;;;;;;;21.85;67.35;100315.81;10336070;28;20278;-68
2023/09/29 09:00:55;;;;;;;5.97;5.05;;;;;;;22.14;67.67;100303.09;10329551;28;20867;-70
2023/09/29 09:05:57;;;;;;;5.72;4.65;;;;;;;22.44;66.87;100300.16;10336113;28;20183;-66
2023/09/29 09:11:03;;;;;;;5.55;4.40;;;;;;;22.83;63.79;100318.50;10341230;28;20053;-65
2023/09/29 09:16:07;;;;;;;5.72;4.47;;;;;;;22.87;64.14;100305.38;10339735;28;20571;-63
2023/09/29 09:21:08;;;;;;;8.07;4.63;;;;;;;23.26;62.66;100296.53;10324969;28;20057;-64
2023/09/29 09:26:16;;;;;;;4.90;3.78;;;;;;;23.61;59.83;100309.94;10337888;28;20080;-65
2023/09/29 09:31:18;;;;;;;5.10;4.15;;;;;;;23.46;60.38;100301.16;10297194;28;20072;-65
2023/09/29 09:36:19;;;;;;;5.30;3.75;;;;;;;23.39;60.41;100289.44;10299730;28;20274;-65
2023/09/29 09:41:21;;;;;;;5.30;3.88;;;;;;;23.52;60.48;100299.50;10300101;28;20937;-64
2023/09/29 09:46:22;;;;;;;5.22;3.75;;;;;;;23.63;59.39;100286.13;10297090;28;20132;-64
2023/09/29 09:51:36;;;;;;;6.15;4.07;;;;;;;23.70;59.56;100296.16;10299282;28;20061;-64
2023/09/29 09:56:46;;;;;;;5.32;3.70;;;;;;;24.21;59.21;100287.34;10300049;28;20387;-64
2023/09/29 10:01:49;;;;;;;5.07;4.18;;;;;;;24.74;56.87;100291.84;10301054;28;20131;-64
2023/09/29 10:06:51;;;;;;;;;;;;;;;25.05;55.94;100280.13;10298792;28;20133;-65
2023/09/29 10:11:59;;;;;;;5.38;3.53;;;;;;;25.43;56.92;100283.06;10300973;28;19952;-64
2023/09/29 10:17:05;;;;;;;4.43;4.03;;;;;;;25.49;54.34;100293.06;10296966;28;21332;-65
2023/09/29 10:22:08;;;;;;;6.88;3.78;;;;;;;25.18;55.26;100270.22;10298358;28;20394;-64
2023/09/29 10:27:11;;;;;;;5.18;3.28;;;;;;;25.73;55.17;100278.63;10295832;28;20064;-67
2023/09/29 10:32:16;;;;;;;5.82;3.28;;;;;;;25.90;54.93;100261.72;10296513;28;20136;-65
2023/09/29 10:37:19;;;;;;;5.22;3.60;;;;;;;25.96;55.31;100268.13;10297894;28;20049;-65
2023/09/29 10:42:22;;;;;;;3.60;3.13;;;;;;;26.00;54.74;100281.16;10302703;28;20060;-64
2023/09/29 10:47:34;;;;;;;4.18;3.28;;;;;;;25.79;53.36;100281.53;10298985;28;21009;-65
2023/09/29 10:52:36;;;;;;;4.03;2.77;;;;;;;25.60;54.86;100297.81;10299748;28;20060;-65
2023/09/29 10:57:39;;;;;;;5.05;3.25;;;;;;;25.19;55.40;100274.59;10337783;28;20053;-65
2023/09/29 11:02:42;;;;;;;5.50;3.53;;;;;;;25.19;55.74;100274.59;10332944;28;20057;-64
2023/09/29 11:07:49;;;;;;;4.53;3.65;;;;;;;25.36;55.53;100281.22;10323293;28;20053;-64
2023/09/29 11:12:50;;;;;;;4.95;3.47;;;;;;;26.07;54.54;100262.00;10337674;28;20103;-64
2023/09/29 11:17:52;;;;;;;4.68;3.40;;;;;;;26.60;53.90;100252.34;10339132;28;20542;-63
2023/09/29 11:23:03;;;;;;;6.15;3.80;;;;;;;26.82;52.49;100236.34;10333974;28;20077;-63
2023/09/29 11:28:11;;;;;;;4.20;3.05;;;;;;;26.60;52.59;100244.16;10336423;28;20061;-64
2023/09/29 11:33:14;;;;;;;8.07;3.85;;;;;;;26.30;53.21;100236.75;10331559;28;20228;-64
2023/09/29 11:38:20;;;;;;;6.30;4.07;;;;;;;26.05;54.17;100243.13;10329034;28;20494;-64
2023/09/29 11:43:21;;;;;;;4.78;3.60;;;;;;;25.98;54.27;100241.50;10331132;28;20275;-64
2023/09/29 11:48:23;;;;;;;4.82;3.22;;;;;;;25.91;54.46;100234.22;10345367;28;20678;-63
2023/09/29 11:53:25;;;;;;;6.63;3.83;;;;;;;25.76;55.31;100223.69;10344380;28;20277;-64
2023/09/29 11:58:26;;;;;;;6.65;3.50;;;;;;;25.89;55.49;100194.59;10342957;28;20076;-63
2023/09/29 12:03:28;;;;;;;7.35;4.10;;;;;;;27.40;52.15;100215.75;10346986;28;20445;-64
2023/09/29 12:08:30;;;;;;;4.05;3.30;;;;;;;26.99;52.63;100210.06;10307301;28;20371;-64
2023/09/29 12:13:33;;;;;;;4.72;3.55;;;;;;;27.22;52.07;100213.91;10305560;28;20084;-64
2023/09/29 12:18:34;;;;;;;;;;;;;;;27.91;49.66;100210.63;10307911;28;20056;-63
2023/09/29 12:23:36;;;;;;;6.20;2.50;;;;;;;28.85;47.71;100215.03;10304614;28;19941;-66
2023/09/29 12:28:37;;;;;;;4.00;2.63;;;;;;;27.86;47.69;100225.03;10303797;28;20463;-65
2023/09/29 12:33:39;;;;;;;3.22;2.90;;;;;;;27.20;49.79;100231.59;10306778;28;20500;-65
2023/09/29 12:38:43;;;;;;;3.53;1.90;;;;;;;26.58;50.31;100230.75;10305204;28;20050;-65
2023/09/29 12:43:44;;;;;;;2.65;2.25;;;;;;;26.24;50.36;100238.53;10304299;28;20133;-65
2023/09/29 12:48:47;;;;;;;5.53;2.50;;;;;;;25.99;51.24;100243.22;10304328;28;20596;-65
2023/09/29 12:53:49;;;;;;;;;;;;;;;25.86;52.14;100241.41;10304811;28;20622;-65
2023/09/29 12:58:51;;;;;;;5.30;2.35;;;;;;;25.94;52.12;100254.72;10302986;28;19922;-64
2023/09/29 13:03:52;;;;;;;3.83;2.38;;;;;;;26.35;51.25;100223.28;10302692;28;20492;-64
2023/09/29 13:08:54;;;;;;;5.67;2.50;;;;;;;26.30;51.77;100261.31;10302975;28;20057;-62
2023/09/29 13:13:56;;;;;;;4.70;2.72;;;;;;;25.80;52.88;100278.56;10301345;28;20108;-64
2023/09/29 13:18:58;;;;;;;4.38;2.08;;;;;;;25.52;54.49;100288.03;10305806;28;20054;-66
2023/09/29 13:24:00;;;;;;;4.93;2.10;;;;;;;25.13;55.64;100294.53;10305094;28;20050;-64
2023/09/29 13:29:02;;;;;;;9.10;2.80;;;;;;;24.97;56.36;100329.41;10296751;28;20294;-65
2023/09/29 13:34:04;;;;;;;5.15;3.80;;;;;;;25.10;54.88;100323.06;10307312;28;20046;-65
2023/09/29 13:39:07;;;;;;;9.43;4.45;;;;;;;25.34;51.40;100328.81;10303681;28;20058;-64
2023/09/29 13:44:10;;;;;;;14.68;6.18;;;;;;;25.85;49.72;100314.19;10300980;28;20057;-65
2023/09/29 13:49:11;;;;;;;9.45;5.93;;;;;;;25.72;49.04;100338.84;10301561;28;20061;-63
2023/09/29 13:54:13;;;;;;;11.32;6.10;;;;;;;26.88;46.79;100313.78;10301782;28;20147;-64
2023/09/29 13:59:14;;;;;;;9.10;4.70;;;;;;;28.38;43.87;100330.16;10305382;28;20904;-65
2023/09/29 14:04:15;;;;;;;7.95;4.60;;;;;;;27.70;45.47;100348.78;10299376;28;20216;-63
2023/09/29 14:09:17;;;;;;;13.27;6.78;;;;;;;26.95;46.46;100333.66;10301018;28;20049;-65
2023/09/29 14:14:19;;;;;;;18.30;9.80;;;;;;;26.46;46.54;100345.28;10298934;28;20061;-64
2023/09/29 14:19:21;;;;;;;21.17;13.02;;;;;;;25.91;46.29;100354.19;10295878;28;20500;-64
2023/09/29 14:24:22;;;;;;;23.20;15.10;;;;;;;25.52;46.32;100347.13;10299615;28;20848;-63
2023/09/29 14:29:24;;;;;;;23.75;14.15;;;;;;;25.04;46.86;100346.56;10302125;28;20811;-65
2023/09/29 14:34:25;;;;;;;26.20;14.30;;;;;;;24.80;48.00;100361.72;10301388;28;20526;-65
2023/09/29 14:39:27;;;;;;;21.77;14.30;;;;;;;24.86;48.63;100360.00;10298341;28;20587;-63
2023/09/29 14:44:28;;;;;;;24.10;15.52;;;;;;;24.67;48.57;100357.16;10300550;28;20057;-63
2023/09/29 14:49:30;;;;;;;21.58;13.80;;;;;;;24.55;48.56;100358.00;10303601;28;20139;-64
2023/09/29 14:54:31;;;;;;;24.70;15.38;;;;;;;24.57;48.54;100367.63;10263720;28;1059170;-64
2023/09/29 14:59:33;;;;;;;22.48;14.18;;;;;;;24.46;49.01;100360.13;10302863;28;20046;-63
2023/09/29 15:04:34;;;;;;;22.75;14.77;;;;;;;24.17;48.79;100340.50;10300573;28;25337;-66
2023/09/29 15:09:56;;;;;;;20.95;13.55;;;;;;;24.27;50.03;100373.53;10302442;28;20416;-66
2023/09/29 15:14:57;;;;;;;23.70;13.88;;;;;;;24.27;49.93;100372.69;10300052;28;20050;-65
2023/09/29 15:19:59;;;;;;;24.42;14.02;;;;;;;24.26;49.15;100368.28;10301032;28;20453;-64
2023/09/29 15:25:00;;;;;;;23.58;14.38;;;;;;;24.10;48.83;100372.31;10299948;28;20282;-65
2023/09/29 15:30:03;;;;;;;25.42;17.63;;;;;;;23.94;49.45;100370.81;10342443;28;20401;-65
2023/09/29 15:35:11;;;;;;;;;;;;;;;23.88;50.17;100386.09;10348351;28;20057;-65
2023/09/29 15:40:12;;;;;;;24.33;13.77;;;;;;;23.71;49.94;100373.94;10335219;28;19951;-62
2023/09/29 15:45:14;;;;;;;24.42;14.75;;;;;;;23.70;50.51;100380.41;10344445;28;20056;-64
2023/09/29 15:50:16;;;;;;;23.38;14.90;;;;;;;23.67;50.19;100391.69;10342239;28;20244;-64
2023/09/29 15:55:18;;;;;;;25.13;15.10;;;;;;;23.54;50.40;100396.06;10337698;28;20060;-65
2023/09/29 16:00:20;;;;;;;24.23;14.80;;;;;;;23.30;51.17;100381.16;10328152;28;20290;-66
2023/09/29 16:05:22;;;;;;;21.25;12.90;;;;;;;23.34;51.22;100390.53;10340034;28;20049;-66
2023/09/29 16:10:23;;;;;;;22.38;13.55;;;;;;;23.34;51.49;100415.00;10340342;28;21696;-66
2023/09/29 16:15:24;;;;;;;21.55;12.95;;;;;;;23.41;52.26;100423.19;10332458;28;20439;-65
2023/09/29 16:20:26;;;;;;;21.90;12.82;;;;;;;23.38;51.53;100431.72;10346764;28;20377;-66
2023/09/29 16:25:27;;;;;;;16.73;11.93;;;;;;;23.33;51.94;100436.91;10349087;28;20054;-66
2023/09/29 16:30:29;;;;;;;19.80;12.77;;;;;;;23.29;52.13;100437.31;10335252;28;20049;-66
2023/09/29 16:35:31;;;;;;;18.35;12.10;;;;;;;23.25;52.14;100452.34;10350749;28;20565;-68
2023/09/29 16:40:38;;;;;;;21.98;12.82;;;;;;;23.15;52.45;100451.91;10353491;28;20053;-66
2023/09/29 16:45:40;;;;;;;18.27;12.18;;;;;;;23.08;52.54;100457.25;10336535;28;20471;-66
2023/09/29 16:50:41;;;;;;;19.63;11.95;;;;;;;22.89;53.08;100450.66;10345977;28;20056;-65
2023/09/29 16:55:43;;;;;;;17.45;10.40;;;;;;;22.84;53.31;100455.88;10346645;28;20581;-66
2023/09/29 17:00:45;;;;;;;16.20;10.60;;;;;;;22.87;53.56;100477.16;10347021;28;20075;-65
2023/09/29 17:05:46;;;;;;;19.25;11.93;;;;;;;22.87;54.38;100482.59;10347091;28;20610;-65
2023/09/29 17:10:47;;;;;;;20.42;11.15;;;;;;;22.89;54.11;100491.38;10337940;28;20064;-66
2023/09/29 17:15:49;;;;;;;16.67;10.70;;;;;;;22.88;54.44;100502.44;10349158;28;20147;-68
2023/09/29 17:20:52;;;;;;;17.05;10.65;;;;;;;22.82;54.65;100509.50;10352652;28;20126;-65
2023/09/29 17:25:53;;;;;;;16.45;9.35;;;;;;;22.74;54.61;100509.66;10349820;28;20156;-66
2023/09/29 17:30:55;;;;;;;18.85;11.02;;;;;;;22.69;54.74;100512.13;10332199;28;20145;-66
2023/09/29 17:35:56;;;;;;;16.40;9.63;;;;;;;22.56;55.43;100524.56;10344804;28;20065;-66
2023/09/29 17:40:57;;;;;;;14.95;8.75;;;;;;;22.50;55.61;100524.47;10349172;28;20419;-67
2023/09/29 17:46:07;;;;;;;14.85;7.93;;;;;;;22.53;55.92;100537.66;10350137;28;20194;-66
2023/09/29 17:51:13;;;;;;;14.70;7.93;;;;;;;22.44;56.12;100520.66;10346309;28;20053;-66
2023/09/29 17:56:15;;;;;;;14.18;8.52;;;;;;;22.35;56.14;100502.84;10346862;28;20050;-67
2023/09/29 18:01:16;;;;;;;11.68;7.45;;;;;;;22.42;56.51;100518.16;10344022;28;20294;-65
2023/09/29 18:06:29;;;;;;;12.27;6.78;;;;;;;22.26;57.12;100515.69;10344408;28;20367;-66
2023/09/29 18:11:32;;;;;;;12.90;7.40;;;;;;;22.28;57.35;100521.75;10335571;28;20060;-66
2023/09/29 18:16:33;;;;;;;13.10;6.40;;;;;;;22.11;57.65;100498.63;10343855;28;20164;-66
2023/09/29 18:21:36;;;;;;;12.73;6.55;;;;;;;22.16;57.95;100520.56;10342448;28;20076;-65
2023/09/29 18:26:37;;;;;;;12.37;6.77;;;;;;;22.11;58.31;100523.03;10345653;28;20046;-67
2023/09/29 18:31:39;;;;;;;9.57;5.65;;;;;;;22.14;58.63;100537.03;10323893;28;20283;-66
2023/09/29 18:36:41;;;;;;;11.95;6.75;;;;;;;22.15;59.07;100544.13;10329718;28;20049;-66
2023/09/29 18:41:42;;;;;;;11.55;7.25;;;;;;;22.14;59.05;100545.16;10347095;28;20499;-67
2023/09/29 18:46:44;;;;;;;13.70;6.75;;;;;;;22.12;59.35;100549.94;10345870;28;20064;-66
2023/09/29 18:51:45;;;;;;;15.82;7.10;;;;;;;22.12;59.54;100563.50;10344746;28;20050;-66
2023/09/29 18:56:46;;;;;;;9.38;5.53;;;;;;;22.05;60.40;100571.56;10343438;28;20054;-66
2023/09/29 19:01:48;;;;;;;13.50;5.57;;;;;;;22.15;60.01;100583.97;10327147;28;20049;-66
2023/09/29 19:06:50;;;;;;;8.10;4.32;;;;;;;21.99;60.17;100571.47;10342758;28;20046;-66
2023/09/29 19:11:51;;;;;;;7.78;4.13;;;;;;;21.98;60.70;100600.47;10342955;28;20099;-66
2023/09/29 19:16:53;;;;;;;7.68;4.07;;;;;;;21.99;61.17;100612.13;10330833;28;20045;-68
2023/09/29 19:21:54;;;;;;;8.75;3.90;;;;;;;21.88;61.55;100614.28;10349556;28;20053;-65
2023/09/29 19:26:56;;;;;;;9.07;4.70;;;;;;;21.86;62.07;100621.78;10331502;28;20048;-67
2023/09/29 19:31:57;;;;;;;6.82;3.55;;;;;;;21.91;62.12;100632.06;10346182;28;20092;-67
2023/09/29 19:36:59;;;;;;;6.85;3.92;;;;;;;21.93;62.30;100642.72;10348817;28;20064;-67
2023/09/29 19:42:03;;;;;;;8.27;4.15;;;;;;;21.86;62.89;100643.47;10352395;28;20111;-67
2023/09/29 19:47:05;;;;;;;7.03;3.47;;;;;;;21.70;63.15;100643.66;10303539;28;20061;-63
2023/09/29 19:52:07;;;;;;;7.28;3.67;;;;;;;21.78;65.46;100661.69;10314521;28;20053;-66
2023/09/29 19:57:08;;;;;;;6.63;3.15;;;;;;;21.68;68.79;100668.22;10313752;28;20060;-64
2023/09/29 20:02:10;;;;;;;4.28;2.42;;;;;;;21.54;70.85;100672.63;10325803;28;20133;-65
2023/09/29 20:07:11;;;;;;;3.67;1.58;;;;;;;21.18;74.27;100657.03;10324632;28;20084;-68
2023/09/29 20:12:13;;;;;;;4.13;1.88;;;;;;;21.16;73.69;100683.44;10364686;28;20046;-65
2023/09/29 20:17:15;;;;;;;3.53;1.60;;;;;;;20.89;76.44;100702.94;10349503;28;20065;-65
2023/09/29 20:22:16;;;;;;;4.35;1.77;;;;;;;20.57;77.96;100702.94;10319238;28;20053;-69
2023/09/29 20:27:18;;;;;;;5.30;2.40;;;;;;;20.37;80.63;100713.38;10320518;28;20049;-67
2023/09/29 20:32:19;;;;;;;2.88;1.50;;;;;;;20.12;79.24;100721.56;10308322;28;20058;-68
2023/09/29 20:37:21;;;;;;;2.47;1.42;;;;;;;19.99;79.56;100747.47;10307314;28;20069;-67
2023/09/29 20:42:22;;;;;;;2.10;1.60;;;;;;;19.99;78.05;100753.69;10309760;28;20046;-65
2023/09/29 20:47:24;;;;;;;2.35;1.42;;;;;;;19.98;76.13;100754.72;10312386;28;20054;-64
2023/09/29 20:52:31;;;;;;;3.80;2.20;;;;;;;19.69;73.39;100763.38;10311629;28;20074;-65
2023/09/29 20:57:32;;;;;;;2.38;1.48;;;;;;;19.71;72.12;100767.59;10312573;28;20046;-64
2023/09/29 21:02:34;;;;;;;2.50;2.10;;;;;;;19.71;71.66;100772.13;10305499;28;20057;-63
2023/09/29 21:07:35;;;;;;;5.05;2.15;;;;;;;19.53;70.80;100769.59;10310246;28;20049;-65
2023/09/29 21:12:37;;;;;;;3.22;2.72;;;;;;;19.20;71.06;100748.00;10308690;28;20793;-62
2023/09/29 21:17:39;;;;;;;3.45;2.40;;;;;;;19.49;72.52;100796.13;10308347;28;20692;-65
2023/09/29 21:22:41;;;;;;;4.45;2.92;;;;;;;19.58;72.77;100810.47;10307910;28;20804;-65
2023/09/29 21:27:43;;;;;;;4.13;3.45;;;;;;;19.64;72.00;100801.69;10305175;28;20140;-63
2023/09/29 21:32:45;;;;;;;3.55;3.25;;;;;;;19.74;72.69;100807.75;10306681;28;20266;-64
2023/09/29 21:37:46;;;;;;;4.82;3.83;;;;;;;20.02;70.66;100828.19;10307564;28;20050;-65
2023/09/29 21:42:47;;;;;;;6.00;4.20;;;;;;;20.03;70.68;100840.69;10309097;28;20164;-64
2023/09/29 21:47:49;;;;;;;6.85;4.63;;;;;;;19.93;70.68;100835.44;10310593;28;20647;-65
2023/09/29 21:52:50;;;;;;;5.10;4.03;;;;;;;19.76;70.12;100840.81;10308160;28;20046;-65
2023/09/29 21:57:52;;;;;;;4.93;3.92;;;;;;;19.54;69.33;100831.53;10306849;28;20171;-64
2023/09/29 22:02:54;;;;;;;6.28;4.00;;;;;;;19.45;69.60;100845.22;10309330;28;20058;-64
2023/09/29 22:07:56;;;;;;;5.43;3.47;;;;;;;19.50;70.33;100845.53;10305405;28;20058;-63
2023/09/29 22:12:57;;;;;;;6.22;4.00;;;;;;;19.55;72.36;100843.19;10300149;28;20200;-65
2023/09/29 22:17:59;;;;;;;8.73;4.43;;;;;;;19.56;71.30;100840.34;10307796;28;20196;-64
2023/09/29 22:23:01;;;;;;;5.40;3.55;;;;;;;19.56;70.60;100850.28;10307745;28;20049;-64
2023/09/29 22:28:02;;;;;;;4.35;3.55;;;;;;;19.71;71.32;100869.34;10304477;28;20081;-64
2023/09/29 22:33:05;;;;;;;5.88;3.53;;;;;;;19.67;70.56;100879.66;10306577;28;20409;-64
2023/09/29 22:38:07;;;;;;;4.95;3.35;;;;;;;19.81;70.74;100885.44;10304348;28;20057;-64
2023/09/29 22:43:11;;;;;;;5.95;3.88;;;;;;;19.86;69.27;100888.47;10316996;28;20449;-63
2023/09/29 22:48:12;;;;;;;;;;;;;;;19.68;69.84;100867.00;10317054;28;20145;-64
2023/09/29 22:53:14;;;;;;;5.30;3.40;;;;;;;19.82;70.20;100887.97;10317722;28;20432;-64
2023/09/29 22:58:16;;;;;;;4.30;3.13;;;;;;;19.97;68.33;100901.66;10351331;28;20041;-63
2023/09/29 23:03:18;;;;;;;6.25;2.78;;;;;;;19.85;68.96;100889.50;10317562;28;20053;-63